Time;durP1;ratioP1;P1;durP2;ratioP2;P2;SDS_P1;SDS_P2;PMS_P1;PMS_P2;Temp;Humidity;BMP_temperature;BMP_pressure;BME280_temperature;BME280_humidity;BME280_pressure;Samples;Min_cycle;Max_cycle;Signal;HPM_P1;HPM_P2
2022/06/01 00:01:14;;;;;;;;;;;;;;;;;;5057819;28;19963;-42
2022/06/01 00:03:39;;;;;;;;;;;;;;;;;;5057723;28;19915;-43
2022/06/01 00:06:04;;;;;;;;;;;;;;;;;;5057331;28;19913;-43
2022/06/01 00:08:32;;;;;;;;;;;;;;;;;;5057408;28;19912;-43
2022/06/01 00:10:57;;;;;;;;;;;;;;;;;;5057255;28;19955;-42
2022/06/01 00:13:22;;;;;;;;;;;;;;;;;;5057375;28;19913;-42
2022/06/01 00:15:47;;;;;;;;;;;;;;;;;;5055711;28;19924;-43
2022/06/01 00:18:13;;;;;;;;;;;;;;;;;;5057202;28;19913;-43
2022/06/01 00:20:38;;;;;;;;;;;;;;;;;;5057256;28;19909;-42
2022/06/01 00:23:04;;;;;;;;;;;;;;;;;;5057014;28;19920;-42
2022/06/01 00:25:29;;;;;;;;;;;;;;;;;;5057063;28;19916;-43
2022/06/01 00:27:57;;;;;;;;;;;;;;;;;;5057494;28;20434;-43
2022/06/01 00:30:26;;;;;;;;;;;;;;;;;;5057308;28;19920;-43
2022/06/01 00:32:51;;;;;;;;;;;;;;;;;;5057362;28;19909;-42
2022/06/01 00:35:17;;;;;;;;;;;;;;;;;;5057279;28;19932;-42
2022/06/01 00:37:45;;;;;;;;;;;;;;;;;;5057412;28;20004;-42
2022/06/01 00:40:10;;;;;;;;;;;;;;;;;;5057387;28;19915;-42
2022/06/01 00:42:35;;;;;;;;;;;;;;;;;;5057201;28;20962;-42
2022/06/01 00:45:01;;;;;;;;;;;;;;;;;;5056866;28;19919;-43
2022/06/01 00:47:27;;;;;;;;;;;;;;;;;;5057304;28;19913;-43
2022/06/01 00:49:55;;;;;;;;;;;;;;;;;;5056887;28;20012;-42
2022/06/01 00:52:35;;;;;;;;;;;;;;;;;;5056765;28;19952;-42
2022/06/01 00:55:04;;;;;;;;;;;;;;;;;;5056312;28;19917;-43
2022/06/01 00:57:29;;;;;;;;;;;;;;;;;;5056797;28;20279;-42
2022/06/01 00:59:54;;;;;;;;;;;;;;;;;;5056510;28;19995;-42
2022/06/01 01:02:22;;;;;;;;;;;;;;;;;;5056715;28;19909;-42
2022/06/01 01:04:47;;;;;;;;;;;;;;;;;;5056413;28;19917;-42
2022/06/01 01:07:12;;;;;;;;;;;;;;;;;;5056862;28;19958;-43
2022/06/01 01:09:38;;;;;;;;;;;;;;;;;;5057406;28;19915;-42
2022/06/01 01:12:06;;;;;;;;;;;;;;;;;;5057102;28;19905;-42
2022/06/01 01:14:32;;;;;;;;;;;;;;;;;;5056580;28;19913;-42
2022/06/01 01:16:57;;;;;;;;;;;;;;;;;;5056802;28;19913;-42
2022/06/01 01:19:25;;;;;;;;;;;;;;;;;;5056444;28;19908;-42
2022/06/01 01:21:53;;;;;;;;;;;;;;;;;;5056502;28;19963;-42
2022/06/01 01:24:18;;;;;;;;;;;;;;;;;;5056133;28;19912;-42
2022/06/01 01:26:48;;;;;;;;;;;;;;;;;;5055971;28;19915;-42
2022/06/01 01:29:14;;;;;;;;;;;;;;;;;;5066386;23;20470;-42
2022/06/01 01:31:39;;;;;;;;;;;;;;;;;;5058892;28;19924;-42
2022/06/01 01:34:05;;;;;;;;;;;;;;;;;;5075918;28;19971;-42
2022/06/01 01:36:31;;;;;;;;;;;;;;;;;;5076360;28;19924;-42
2022/06/01 01:38:56;;;;;;;;;;;;;;;;;;5075779;28;19954;-43
2022/06/01 01:41:24;;;;;;;;;;;;;;;;;;5076059;28;19909;-42
2022/06/01 01:43:50;;;;;;;;;;;;;;;;;;5075708;28;20411;-43
2022/06/01 01:46:15;;;;;;;;;;;;;;;;;;5075630;28;19944;-42
2022/06/01 01:48:40;;;;;;;;;;;;;;;;;;5075875;28;19912;-43
2022/06/01 01:51:07;;;;;;;;;;;;;;;;;;5076103;28;20379;-42
2022/06/01 01:53:35;;;;;;;;;;;;;;;;;;5075942;28;19909;-42
2022/06/01 01:56:03;;;;;;;;;;;;;;;;;;5075591;28;20026;-42
2022/06/01 01:58:28;;;;;;;;;;;;;;;;;;5075616;28;20280;-42
2022/06/01 02:00:53;;;;;;;;;;;;;;;;;;5075557;28;20368;-43
2022/06/01 02:03:19;;;;;;;;;;;;;;;;;;5075370;28;20397;-42
2022/06/01 02:08:29;;;;;;;;;;;;;;;;;;5075530;28;20010;-43
2022/06/01 02:13:38;;;;;;;;;;;;;;;;;;5075418;28;19931;-43
2022/06/01 02:16:06;;;;;;;;;;;;;;;;;;5075073;28;20228;-42
2022/06/01 02:18:31;;;;;;;;;;;;;;;;;;5075565;28;19909;-42
2022/06/01 02:20:57;;;;;;;;;;;;;;;;;;5075514;28;20260;-43
2022/06/01 02:23:22;;;;;;;;;;;;;;;;;;5076121;28;20355;-43
2022/06/01 02:25:52;;;;;;;;;;;;;;;;;;5075083;28;19912;-42
2022/06/01 02:28:17;;;;;;;;;;;;;;;;;;5075245;28;19915;-42
2022/06/01 02:30:42;;;;;;;;;;;;;;;;;;5073803;28;20003;-42
2022/06/01 02:33:09;;;;;;;;;;;;;;;;;;5075278;28;19912;-42
2022/06/01 02:35:36;;;;;;;;;;;;;;;;;;5074832;28;20350;-42
2022/06/01 02:38:01;;;;;;;;;;;;;;;;;;5075149;28;19913;-42
2022/06/01 02:40:26;;;;;;;;;;;;;;;;;;5074208;28;20355;-42
2022/06/01 02:42:51;;;;;;;;;;;;;;;;;;5074926;28;19913;-42
2022/06/01 02:45:16;;;;;;;;;;;;;;;;;;5074638;28;19912;-42
2022/06/01 02:47:42;;;;;;;;;;;;;;;;;;5075108;28;19968;-43
2022/06/01 02:50:10;;;;;;;;;;;;;;;;;;5075041;28;19930;-42
2022/06/01 02:52:35;;;;;;;;;;;;;;;;;;5074946;28;19931;-42
2022/06/01 02:55:05;;;;;;;;;;;;;;;;;;5074628;28;20352;-42
2022/06/01 02:57:31;;;;;;;;;;;;;;;;;;5074780;28;20364;-42
2022/06/01 02:59:56;;;;;;;;;;;;;;;;;;5074967;28;19909;-43
2022/06/01 03:02:21;;;;;;;;;;;;;;;;;;5074542;28;19977;-42
2022/06/01 03:04:47;;;;;;;;;;;;;;;;;;5074588;28;20390;-42
2022/06/01 03:07:15;;;;;;;;;;;;;;;;;;5075000;28;20065;-42
2022/06/01 03:09:40;;;;;;;;;;;;;;;;;;5074788;28;20351;-42
2022/06/01 03:12:05;;;;;;;;;;;;;;;;;;5074693;28;19916;-42
2022/06/01 03:14:30;;;;;;;;;;;;;;;;;;5074521;28;19912;-42
2022/06/01 03:16:56;;;;;;;;;;;;;;;;;;5074613;28;20015;-42
2022/06/01 03:19:21;;;;;;;;;;;;;;;;;;5074817;28;19947;-42
2022/06/01 03:21:46;;;;;;;;;;;;;;;;;;5074697;28;20253;-42
2022/06/01 03:24:11;;;;;;;;;;;;;;;;;;5074476;28;19983;-42
2022/06/01 03:26:39;;;;;;;;;;;;;;;;;;5074654;28;19912;-42
2022/06/01 03:29:04;;;;;;;;;;;;;;;;;;5074824;28;20248;-42
2022/06/01 03:31:30;;;;;;;;;;;;;;;;;;5074852;28;19919;-42
2022/06/01 03:33:55;;;;;;;;;;;;;;;;;;5074680;28;19954;-42
2022/06/01 03:36:21;;;;;;;;;;;;;;;;;;5074768;28;19995;-42
2022/06/01 03:38:46;;;;;;;;;;;;;;;;;;5074708;28;20264;-42
2022/06/01 03:41:11;;;;;;;;;;;;;;;;;;5074563;28;19964;-42
2022/06/01 03:46:20;;;;;;;;;;;;;;;;;;5074782;28;20324;-42
2022/06/01 03:48:46;;;;;;;;;;;;;;;;;;5074913;28;19999;-42
2022/06/01 03:51:11;;;;;;;;;;;;;;;;;;5076435;28;19919;-42
2022/06/01 03:53:37;;;;;;;;;;;;;;;;;;5078219;28;19915;-43
2022/06/01 03:56:07;;;;;;;;;;;;;;;;;;5077919;28;19912;-42
2022/06/01 03:58:35;;;;;;;;;;;;;;;;;;5077963;28;20125;-42
2022/06/01 04:01:00;;;;;;;;;;;;;;;;;;5077711;28;20252;-42
2022/06/01 04:03:25;;;;;;;;;;;;;;;;;;5078049;28;19970;-43
2022/06/01 04:05:52;;;;;;;;;;;;;;;;;;5078452;28;19912;-43
2022/06/01 04:08:17;;;;;;;;;;;;;;;;;;5078273;28;19909;-42
2022/06/01 04:10:43;;;;;;;;;;;;;;;;;;5077642;28;19962;-43
2022/06/01 04:13:11;;;;;;;;;;;;;;;;;;5078148;28;19936;-42
2022/06/01 04:15:37;;;;;;;;;;;;;;;;;;5077783;28;20422;-42
2022/06/01 04:18:04;;;;;;;;;;;;;;;;;;5077872;28;19908;-42
2022/06/01 04:20:30;;;;;;;;;;;;;;;;;;5078069;28;20363;-42
2022/06/01 04:22:55;;;;;;;;;;;;;;;;;;5077411;28;20034;-42
2022/06/01 04:25:20;;;;;;;;;;;;;;;;;;5077376;28;19913;-42
2022/06/01 04:27:45;;;;;;;;;;;;;;;;;;5078180;28;19916;-42
2022/06/01 04:30:10;;;;;;;;;;;;;;;;;;5077570;28;19959;-42
2022/06/01 04:32:35;;;;;;;;;;;;;;;;;;5077225;28;19916;-43
2022/06/01 04:35:01;;;;;;;;;;;;;;;;;;5076848;28;19916;-42
2022/06/01 04:37:29;;;;;;;;;;;;;;;;;;5077332;28;19948;-42
2022/06/01 04:39:55;;;;;;;;;;;;;;;;;;5077294;28;20419;-42
2022/06/01 04:42:20;;;;;;;;;;;;;;;;;;5077307;28;19944;-42
2022/06/01 04:44:45;;;;;;;;;;;;;;;;;;5077299;28;20280;-42
2022/06/01 04:47:11;;;;;;;;;;;;;;;;;;5077266;28;19909;-42
2022/06/01 04:49:36;;;;;;;;;;;;;;;;;;5077191;28;19908;-42
2022/06/01 04:52:04;;;;;;;;;;;;;;;;;;5077272;28;19952;-43
2022/06/01 04:54:31;;;;;;;;;;;;;;;;;;5076943;28;19995;-43
2022/06/01 04:56:56;;;;;;;;;;;;;;;;;;5075393;28;19919;-42
2022/06/01 04:59:22;;;;;;;;;;;;;;;;;;5076653;28;19908;-42
2022/06/01 05:01:50;;;;;;;;;;;;;;;;;;5076769;28;19989;-43
2022/06/01 05:04:15;;;;;;;;;;;;;;;;;;5076752;28;19913;-42
2022/06/01 05:06:40;;;;;;;;;;;;;;;;;;5076503;28;20063;-42
2022/06/01 05:09:05;;;;;;;;;;;;;;;;;;5076748;28;20433;-42
2022/06/01 05:11:31;;;;;;;;;;;;;;;;;;5076259;28;19908;-42
2022/06/01 05:13:56;;;;;;;;;;;;;;;;;;5075930;28;19908;-42
2022/06/01 05:16:24;;;;;;;;;;;;;;;;;;5076033;28;19912;-42
2022/06/01 05:18:51;;;;;;;;;;;;;;;;;;5076170;28;19915;-42
2022/06/01 05:21:16;;;;;;;;;;;;;;;;;;5076785;28;20003;-42
2022/06/01 05:23:41;;;;;;;;;;;;;;;;;;5076245;28;19956;-42
2022/06/01 05:26:06;;;;;;;;;;;;;;;;;;5075836;28;19913;-43
2022/06/01 05:28:31;;;;;;;;;;;;;;;;;;5067494;28;19912;-43
2022/06/01 05:30:56;;;;;;;;;;;;;;;;;;5058974;28;20015;-42
2022/06/01 05:33:22;;;;;;;;;;;;;;;;;;5056865;28;20326;-42
2022/06/01 05:35:47;;;;;;;;;;;;;;;;;;5066447;28;20382;-46
2022/06/01 05:38:12;;;;;;;;;;;;;;;;;;5068377;28;19916;-47
2022/06/01 05:40:37;;;;;;;;;;;;;;;;;;5072783;28;19955;-47
2022/06/01 05:43:02;;;;;;;;;;;;;;;;;;5073197;28;19919;-48
2022/06/01 05:45:28;;;;;;;;;;;;;;;;;;5076270;28;19917;-48
2022/06/01 05:47:54;;;;;;;;;;;;;;;;;;5064588;28;19977;-48
2022/06/01 05:50:20;;;;;;;;;;;;;;;;;;5070431;28;19912;-48
2022/06/01 05:52:48;;;;;;;;;;;;;;;;;;5064209;28;19928;-49
2022/06/01 05:55:13;;;;;;;;;;;;;;;;;;5057878;28;20002;-48
2022/06/01 05:57:38;;;;;;;;;;;;;;;;;;5050028;28;19924;-48
2022/06/01 06:00:03;;;;;;;;;;;;;;;;;;5042090;28;19927;-48
2022/06/01 06:02:29;;;;;;;;;;;;;;;;;;5040306;28;19944;-48
2022/06/01 06:04:54;;;;;;;;;;;;;;;;;;5029948;28;21137;-48
2022/06/01 06:07:19;;;;;;;;;;;;;;;;;;5048312;28;20437;-49
2022/06/01 06:09:44;;;;;;;;;;;;;;;;;;5032223;28;19927;-48
2022/06/01 06:12:09;;;;;;;;;;;;;;;;;;5029514;28;20375;-48
2022/06/01 06:14:34;;;;;;;;;;;;;;;;;;4998932;28;19920;-48
2022/06/01 06:17:00;;;;;;;;;;;;;;;;;;4961166;28;20622;-47
2022/06/01 06:19:25;;;;;;;;;;;;;;;;;;4883183;28;21376;-48
2022/06/01 06:21:50;;;;;;;;;;;;;;;;;;4806686;28;20976;-48
2022/06/01 06:24:15;;;;;;;;;;;;;;;;;;4788953;28;21476;-48
2022/06/01 06:26:42;;;;;;;;;;;;;;;;;;4724486;28;22308;-47
2022/06/01 06:29:08;;;;;;;;;;;;;;;;;;4665871;28;20782;-48
2022/06/01 06:31:34;;;;;;;;;;;;;;;;;;4664147;28;27127;-47
2022/06/01 06:33:59;;;;;;;;;;;;;;;;;;4756947;28;24423;-48
2022/06/01 06:36:24;;;;;;;;;;;;;;;;;;4805970;28;26873;-48
2022/06/01 06:38:49;;;;;;;;;;;;;;;;;;4847847;28;19920;-47
2022/06/01 06:41:14;;;;;;;;;;;;;;;;;;4849817;28;20566;-49
2022/06/01 06:43:40;;;;;;;;;;;;;;;;;;4892482;28;21129;-47
2022/06/01 06:46:05;;;;;;;;;;;;;;;;;;4883667;28;19953;-49
2022/06/01 06:48:30;;;;;;;;;;;;;;;;;;4869386;28;22820;-49
2022/06/01 06:50:55;;;;;;;;;;;;;;;;;;4861671;28;20033;-48
2022/06/01 06:53:20;;;;;;;;;;;;;;;;;;4872419;28;19921;-49
2022/06/01 06:55:45;;;;;;;;;;;;;;;;;;4842599;28;20240;-48
2022/06/01 06:58:11;;;;;;;;;;;;;;;;;;4849230;28;22359;-49
2022/06/01 07:00:36;;;;;;;;;;;;;;;;;;4843124;28;19989;-48
2022/06/01 07:03:01;;;;;;;;;;;;;;;;;;4837680;28;21410;-48
2022/06/01 07:08:10;;;;;;;;;;;;;;;;;;4789107;28;21140;-49
2022/06/01 07:10:35;;;;;;;;;;;;;;;;;;4774414;28;19920;-48
2022/06/01 07:13:00;;;;;;;;;;;;;;;;;;4723881;28;32195;-49
2022/06/01 07:15:25;;;;;;;;;;;;;;;;;;4703075;28;19924;-48
2022/06/01 07:17:50;;;;;;;;;;;;;;;;;;4656995;28;22171;-49
2022/06/01 07:20:16;;;;;;;;;;;;;;;;;;4569127;28;21526;-48
2022/06/01 07:22:41;;;;;;;;;;;;;;;;;;4462754;28;21770;-48
2022/06/01 07:25:06;;;;;;;;;;;;;;;;;;4567955;28;24026;-48
2022/06/01 07:27:31;;;;;;;;;;;;;;;;;;4574787;28;36054;-48
2022/06/01 07:29:56;;;;;;;;;;;;;;;;;;4655793;28;41250;-49
2022/06/01 07:32:21;;;;;;;;;;;;;;;;;;4671017;28;29868;-48
2022/06/01 07:34:47;;;;;;;;;;;;;;;;;;4743343;28;23184;-49
2022/06/01 07:45:24;;;;;;;;;;;;;;;;;;4737245;28;26425;-49
2022/06/01 07:47:49;;;;;;;;;;;;;;;;;;4773735;28;32320;-48
2022/06/01 07:50:14;;;;;;;;;;;;;;;;;;4790014;28;24144;-48
2022/06/01 07:52:39;;;;;;;;;;;;;;;;;;4699114;28;22553;-46
2022/06/01 07:55:05;;;;;;;;;;;;;;;;;;4772301;28;43866;-47
2022/06/01 07:57:32;;;;;;;;;;;;;;;;;;4754872;28;34273;-47
2022/06/01 07:59:57;;;;;;;;;;;;;;;;;;4748294;28;19952;-47
2022/06/01 08:02:23;;;;;;;;;;;;;;;;;;4720752;28;26286;-49
2022/06/01 08:04:48;;;;;;;;;;;;;;;;;;4775869;28;20061;-46
2022/06/01 08:07:13;;;;;;;;;;;;;;;;;;4686476;28;23209;-45
2022/06/01 08:09:38;;;;;;;;;;;;;;;;;;4610820;28;20593;-45
2022/06/01 08:14:47;;;;;;;;;;;;;;;;;;4565661;28;20800;-49
2022/06/01 08:17:13;;;;;;;;;;;;;;;;;;4662470;28;32651;-48
2022/06/01 08:19:38;;;;;;;;;;;;;;;;;;4684432;28;35801;-47
2022/06/01 08:22:03;;;;;;;;;;;;;;;;;;4746464;28;23827;-46
2022/06/01 08:24:30;;;;;;;;;;;;;;;;;;4781282;28;25169;-44
2022/06/01 08:26:56;;;;;;;;;;;;;;;;;;4682703;28;27962;-48
2022/06/01 08:29:21;;;;;;;;;;;;;;;;;;4488701;28;26695;-47
2022/06/01 08:31:46;;;;;;;;;;;;;;;;;;4388585;28;36089;-48
2022/06/01 08:34:27;;;;;;;;;;;;;;;;;;4531137;28;28626;-47
2022/06/01 08:36:52;;;;;;;;;;;;;;;;;;4723825;28;20382;-48
2022/06/01 08:39:17;;;;;;;;;;;;;;;;;;4821258;28;24014;-47
2022/06/01 08:41:42;;;;;;;;;;;;;;;;;;4821753;28;20352;-48
2022/06/01 08:44:07;;;;;;;;;;;;;;;;;;4763207;28;23475;-48
2022/06/01 08:46:32;;;;;;;;;;;;;;;;;;4818410;28;22374;-48
2022/06/01 08:48:57;;;;;;;;;;;;;;;;;;4798243;28;21394;-47
2022/06/01 08:51:23;;;;;;;;;;;;;;;;;;4821821;28;24753;-49
2022/06/01 08:53:48;;;;;;;;;;;;;;;;;;4759117;28;28229;-47
2022/06/01 08:56:13;;;;;;;;;;;;;;;;;;4792712;28;28679;-48
2022/06/01 08:58:41;;;;;;;;;;;;;;;;;;4800340;28;32397;-47
2022/06/01 09:01:06;;;;;;;;;;;;;;;;;;4773051;28;32662;-48
2022/06/01 09:03:34;;;;;;;;;;;;;;;;;;4730534;28;25194;-47
2022/06/01 09:06:00;;;;;;;;;;;;;;;;;;4795366;28;27315;-48
2022/06/01 09:08:26;;;;;;;;;;;;;;;;;;4770086;28;29293;-47
2022/06/01 09:10:57;;;;;;;;;;;;;;;;;;4772104;28;25674;-47
2022/06/01 09:13:31;;;;;;;;;;;;;;;;;;4729064;28;30573;-47
2022/06/01 09:15:56;;;;;;;;;;;;;;;;;;4713221;28;33249;-47
2022/06/01 09:18:21;;;;;;;;;;;;;;;;;;4658338;28;36099;-45
2022/06/01 09:23:31;;;;;;;;;;;;;;;;;;4359086;28;35478;-47
2022/06/01 09:25:56;;;;;;;;;;;;;;;;;;4400256;28;34695;-47
2022/06/01 09:28:21;;;;;;;;;;;;;;;;;;4523355;28;33408;-46
2022/06/01 09:30:46;;;;;;;;;;;;;;;;;;4654190;28;38357;-47
2022/06/01 09:33:12;;;;;;;;;;;;;;;;;;4666296;28;34218;-46
2022/06/01 09:35:37;;;;;;;;;;;;;;;;;;4671398;28;31865;-45
2022/06/01 09:38:02;;;;;;;;;;;;;;;;;;4679006;28;33855;-45
2022/06/01 09:40:28;;;;;;;;;;;;;;;;;;4701524;28;26490;-50
2022/06/01 09:42:53;;;;;;;;;;;;;;;;;;4690822;28;29940;-45
2022/06/01 09:45:18;;;;;;;;;;;;;;;;;;4680355;28;33862;-47
2022/06/01 09:47:44;;;;;;;;;;;;;;;;;;4665016;28;37948;-47
2022/06/01 09:50:09;;;;;;;;;;;;;;;;;;4671957;28;35641;-48
2022/06/01 09:52:34;;;;;;;;;;;;;;;;;;4687534;28;39024;-47
2022/06/01 09:55:00;;;;;;;;;;;;;;;;;;4671747;28;36384;-47
2022/06/01 09:57:31;;;;;;;;;;;;;;;;;;4638153;28;23552;-46
2022/06/01 10:08:08;;;;;;;;;;;;;;;;;;4595089;28;38529;-45
2022/06/01 10:10:33;;;;;;;;;;;;;;;;;;4477246;28;31012;-47
2022/06/01 10:12:58;;;;;;;;;;;;;;;;;;4367583;28;29747;-46
2022/06/01 10:15:24;;;;;;;;;;;;;;;;;;4512873;28;29647;-46
2022/06/01 10:17:49;;;;;;;;;;;;;;;;;;4672328;28;27168;-48
2022/06/01 10:20:14;;;;;;;;;;;;;;;;;;4720438;28;31484;-47
2022/06/01 10:22:39;;;;;;;;;;;;;;;;;;4764840;28;26009;-48
2022/06/01 10:25:04;;;;;;;;;;;;;;;;;;4799679;28;22852;-47
2022/06/01 10:27:30;;;;;;;;;;;;;;;;;;4783126;28;21809;-47
2022/06/01 10:29:55;;;;;;;;;;;;;;;;;;4794279;28;30957;-48
2022/06/01 10:32:20;;;;;;;;;;;;;;;;;;4741139;28;30942;-49
2022/06/01 10:34:45;;;;;;;;;;;;;;;;;;4772165;28;25927;-48
2022/06/01 10:37:10;;;;;;;;;;;;;;;;;;4694568;28;41737;-48
2022/06/01 10:39:35;;;;;;;;;;;;;;;;;;4639398;22;43939;-48
2022/06/01 10:42:01;;;;;;;;;;;;;;;;;;4587642;28;32231;-47
2022/06/01 10:44:26;;;;;;;;;;;;;;;;;;4694237;28;22243;-46
2022/06/01 10:46:51;;;;;;;;;;;;;;;;;;4727488;28;22946;-48
2022/06/01 10:49:16;;;;;;;;;;;;;;;;;;4768426;28;21066;-47
2022/06/01 10:51:41;;;;;;;;;;;;;;;;;;4704400;28;32168;-47
2022/06/01 10:54:06;;;;;;;;;;;;;;;;;;4701125;28;33433;-47
2022/06/01 10:56:32;;;;;;;;;;;;;;;;;;4778074;28;23900;-46
2022/06/01 10:58:59;;;;;;;;;;;;;;;;;;4762581;28;22106;-46
2022/06/01 11:01:24;;;;;;;;;;;;;;;;;;4692689;28;28858;-49
2022/06/01 11:03:49;;;;;;;;;;;;;;;;;;4607407;28;21557;-47
2022/06/01 11:06:14;;;;;;;;;;;;;;;;;;4683132;28;20849;-47
2022/06/01 11:08:39;;;;;;;;;;;;;;;;;;4756332;28;20540;-48
2022/06/01 11:11:04;;;;;;;;;;;;;;;;;;4801385;28;22281;-46
2022/06/01 11:13:30;;;;;;;;;;;;;;;;;;4826307;28;22302;-46
2022/06/01 11:15:55;;;;;;;;;;;;;;;;;;4841445;28;24965;-47
2022/06/01 11:18:20;;;;;;;;;;;;;;;;;;4854549;28;20108;-47
2022/06/01 11:20:45;;;;;;;;;;;;;;;;;;4845199;28;21955;-46
2022/06/01 11:23:10;;;;;;;;;;;;;;;;;;4844943;28;20756;-46
2022/06/01 11:25:35;;;;;;;;;;;;;;;;;;4839351;28;40168;-47
2022/06/01 11:28:00;;;;;;;;;;;;;;;;;;4810249;28;24297;-46
2022/06/01 11:30:26;;;;;;;;;;;;;;;;;;4717182;28;21487;-46
2022/06/01 11:32:51;;;;;;;;;;;;;;;;;;4638445;28;20758;-46
2022/06/01 11:35:16;;;;;;;;;;;;;;;;;;4742709;28;21662;-46
2022/06/01 11:37:42;;;;;;;;;;;;;;;;;;4782017;28;20756;-46
2022/06/01 11:40:07;;;;;;;;;;;;;;;;;;4841626;28;20361;-46
2022/06/01 11:42:32;;;;;;;;;;;;;;;;;;4874381;28;20590;-45
2022/06/01 11:44:58;;;;;;;;;;;;;;;;;;4869447;28;20547;-46
2022/06/01 11:47:23;;;;;;;;;;;;;;;;;;4886629;28;22197;-48
2022/06/01 11:49:48;;;;;;;;;;;;;;;;;;4849386;28;36067;-45
2022/06/01 11:52:13;;;;;;;;;;;;;;;;;;4874504;28;19920;-46
2022/06/01 11:54:38;;;;;;;;;;;;;;;;;;4881780;28;19921;-48
2022/06/01 11:57:03;;;;;;;;;;;;;;;;;;4828015;28;22641;-47
2022/06/01 11:59:28;;;;;;;;;;;;;;;;;;4853630;28;22352;-46
2022/06/01 12:01:53;;;;;;;;;;;;;;;;;;4875436;28;19920;-46
2022/06/01 12:04:19;;;;;;;;;;;;;;;;;;4883730;28;19924;-46
2022/06/01 12:06:44;;;;;;;;;;;;;;;;;;4887411;28;20079;-46
2022/06/01 12:09:09;;;;;;;;;;;;;;;;;;4886984;28;21786;-46
2022/06/01 12:11:34;;;;;;;;;;;;;;;;;;4880211;28;22698;-48
2022/06/01 12:13:59;;;;;;;;;;;;;;;;;;4861868;28;20272;-48
2022/06/01 12:16:25;;;;;;;;;;;;;;;;;;4880086;28;21908;-47
2022/06/01 12:18:50;;;;;;;;;;;;;;;;;;4818061;28;22531;-46
2022/06/01 12:21:15;;;;;;;;;;;;;;;;;;4770476;28;33636;-46
2022/06/01 12:29:08;;;;;;;;;;;;;;;;;;4829037;28;20197;-46
2022/06/01 12:31:33;;;;;;;;;;;;;;;;;;4875927;28;19959;-46
2022/06/01 12:33:58;;;;;;;;;;;;;;;;;;4918465;28;21938;-45
2022/06/01 12:36:24;;;;;;;;;;;;;;;;;;4927129;28;19935;-45
2022/06/01 12:38:49;;;;;;;;;;;;;;;;;;4910258;28;20002;-47
2022/06/01 12:41:14;;;;;;;;;;;;;;;;;;4924660;28;19921;-47
2022/06/01 12:43:39;;;;;;;;;;;;;;;;;;4942050;28;19921;-47
2022/06/01 12:46:04;;;;;;;;;;;;;;;;;;4920240;28;19959;-45
2022/06/01 12:48:30;;;;;;;;;;;;;;;;;;4942607;28;20523;-47
2022/06/01 12:50:55;;;;;;;;;;;;;;;;;;4919684;28;25065;-46
2022/06/01 12:53:20;;;;;;;;;;;;;;;;;;4921997;28;20716;-45
2022/06/01 12:55:45;;;;;;;;;;;;;;;;;;4929815;28;20012;-49
2022/06/01 12:58:10;;;;;;;;;;;;;;;;;;4909343;28;19927;-47
2022/06/01 13:00:38;;;;;;;;;;;;;;;;;;4907248;28;19932;-47
2022/06/01 13:03:03;;;;;;;;;;;;;;;;;;4907318;28;19921;-46
2022/06/01 13:05:29;;;;;;;;;;;;;;;;;;4902398;28;19927;-47
2022/06/01 13:07:54;;;;;;;;;;;;;;;;;;4881777;28;19927;-47
2022/06/01 13:10:19;;;;;;;;;;;;;;;;;;4851769;28;20003;-47
2022/06/01 13:12:44;;;;;;;;;;;;;;;;;;4773223;28;19926;-46
2022/06/01 13:15:09;;;;;;;;;;;;;;;;;;4813996;28;21168;-47
2022/06/01 13:17:34;;;;;;;;;;;;;;;;;;4864908;28;20250;-47
2022/06/01 13:19:59;;;;;;;;;;;;;;;;;;4929206;28;19928;-46
2022/06/01 13:22:25;;;;;;;;;;;;;;;;;;4970473;28;19920;-46
2022/06/01 13:24:51;;;;;;;;;;;;;;;;;;4979345;28;21362;-46
2022/06/01 13:27:16;;;;;;;;;;;;;;;;;;4992737;28;20023;-46
2022/06/01 13:29:43;;;;;;;;;;;;;;;;;;5003712;28;19917;-48
2022/06/01 13:32:08;;;;;;;;;;;;;;;;;;4995837;28;19921;-47
2022/06/01 13:34:33;;;;;;;;;;;;;;;;;;4996170;28;19928;-47
2022/06/01 13:36:58;;;;;;;;;;;;;;;;;;5002351;28;19932;-47
2022/06/01 13:39:25;;;;;;;;;;;;;;;;;;4990319;28;20483;-47
2022/06/01 13:41:50;;;;;;;;;;;;;;;;;;4988285;28;21425;-46
2022/06/01 13:44:16;;;;;;;;;;;;;;;;;;4992919;28;20036;-47
2022/06/01 13:46:41;;;;;;;;;;;;;;;;;;4995423;28;19928;-49
2022/06/01 13:49:06;;;;;;;;;;;;;;;;;;5004861;28;20006;-50
2022/06/01 13:51:31;;;;;;;;;;;;;;;;;;4975157;28;19916;-47
2022/06/01 13:53:56;;;;;;;;;;;;;;;;;;4987727;28;20401;-46
2022/06/01 13:56:22;;;;;;;;;;;;;;;;;;4976537;28;19964;-46
2022/06/01 13:58:47;;;;;;;;;;;;;;;;;;4965987;28;19931;-46
2022/06/01 14:01:12;;;;;;;;;;;;;;;;;;4964503;28;21205;-46
2022/06/01 14:03:38;;;;;;;;;;;;;;;;;;4956782;28;19965;-47
2022/06/01 14:06:03;;;;;;;;;;;;;;;;;;4952733;28;19987;-47
2022/06/01 14:08:28;;;;;;;;;;;;;;;;;;4996826;28;19921;-45
2022/06/01 14:10:53;;;;;;;;;;;;;;;;;;5031043;28;20363;-47
2022/06/01 14:13:18;;;;;;;;;;;;;;;;;;5024228;28;19958;-47
2022/06/01 14:15:43;;;;;;;;;;;;;;;;;;5034527;28;20287;-47
2022/06/01 14:18:08;;;;;;;;;;;;;;;;;;5036930;28;19924;-46
2022/06/01 14:20:34;;;;;;;;;;;;;;;;;;5032348;28;19919;-46
2022/06/01 14:22:59;;;;;;;;;;;;;;;;;;5035855;28;20007;-46
2022/06/01 14:30:52;;;;;;;;;;;;;;;;;;5040133;28;19952;-46
2022/06/01 14:33:19;;;;;;;;;;;;;;;;;;5043350;28;19921;-47
2022/06/01 14:35:45;;;;;;;;;;;;;;;;;;5032403;28;19925;-47
2022/06/01 14:38:11;;;;;;;;;;;;;;;;;;5037626;28;20352;-48
2022/06/01 14:40:36;;;;;;;;;;;;;;;;;;5031406;28;19913;-47
2022/06/01 14:43:01;;;;;;;;;;;;;;;;;;5042738;28;19928;-47
2022/06/01 14:45:26;;;;;;;;;;;;;;;;;;5044557;28;19913;-49
2022/06/01 14:47:52;;;;;;;;;;;;;;;;;;5037493;28;19921;-48
2022/06/01 14:50:17;;;;;;;;;;;;;;;;;;5019741;28;20085;-49
2022/06/01 14:52:42;;;;;;;;;;;;;;;;;;5007971;28;19951;-49
2022/06/01 14:55:07;;;;;;;;;;;;;;;;;;5015907;28;19921;-46
2022/06/01 14:57:32;;;;;;;;;;;;;;;;;;5043077;28;19921;-48
2022/06/01 14:59:58;;;;;;;;;;;;;;;;;;5048763;28;19971;-45
2022/06/01 15:02:23;;;;;;;;;;;;;;;;;;5044412;28;19920;-48
2022/06/01 15:04:48;;;;;;;;;;;;;;;;;;5049262;28;19913;-49
2022/06/01 15:07:14;;;;;;;;;;;;;;;;;;5058609;28;19948;-49
2022/06/01 15:09:39;;;;;;;;;;;;;;;;;;5057480;28;19912;-49
2022/06/01 15:12:04;;;;;;;;;;;;;;;;;;5056135;28;20066;-49
2022/06/01 15:14:29;;;;;;;;;;;;;;;;;;5052899;28;20051;-48
2022/06/01 15:16:55;;;;;;;;;;;;;;;;;;5050320;28;19917;-46
2022/06/01 15:19:20;;;;;;;;;;;;;;;;;;5058225;28;19915;-46
2022/06/01 15:21:52;;;;;;;;;;;;;;;;;;5054907;28;20003;-45
2022/06/01 15:24:18;;;;;;;;;;;;;;;;;;5055484;28;19999;-48
2022/06/01 15:26:44;;;;;;;;;;;;;;;;;;5066031;28;19959;-47
2022/06/01 15:40:06;;;;;;;;;;;;;;;;;;5036442;28;19931;-47
2022/06/01 15:42:33;;;;;;;;;;;;;;;;;;5040913;28;19995;-46
2022/06/01 15:45:03;;;;;;;;;;;;;;;;;;5058276;28;19940;-46
2022/06/01 15:47:28;;;;;;;;;;;;;;;;;;5060492;28;19913;-47
2022/06/01 15:49:56;;;;;;;;;;;;;;;;;;5061104;28;19959;-47
2022/06/01 15:52:26;;;;;;;;;;;;;;;;;;5062571;28;19909;-46
2022/06/01 15:54:52;;;;;;;;;;;;;;;;;;5062181;28;19909;-47
2022/06/01 15:57:17;;;;;;;;;;;;;;;;;;5062202;28;19916;-53
2022/06/01 15:59:45;;;;;;;;;;;;;;;;;;5061872;28;19917;-47
2022/06/01 16:02:10;;;;;;;;;;;;;;;;;;5062306;28;19923;-46
2022/06/01 16:04:35;;;;;;;;;;;;;;;;;;5061505;28;20000;-46
2022/06/01 16:07:01;;;;;;;;;;;;;;;;;;5061700;28;19944;-47
2022/06/01 16:09:26;;;;;;;;;;;;;;;;;;5059245;28;19995;-44
2022/06/01 16:11:51;;;;;;;;;;;;;;;;;;5057147;28;20448;-44
2022/06/01 16:14:18;;;;;;;;;;;;;;;;;;5054623;28;19917;-43
2022/06/01 16:16:43;;;;;;;;;;;;;;;;;;5057367;28;20260;-44
2022/06/01 16:19:08;;;;;;;;;;;;;;;;;;5056738;28;19919;-43
2022/06/01 16:21:36;;;;;;;;;;;;;;;;;;5056072;28;20366;-43
2022/06/01 16:24:03;;;;;;;;;;;;;;;;;;5057518;28;19913;-44
2022/06/01 16:26:28;;;;;;;;;;;;;;;;;;5057258;28;20007;-43
2022/06/01 16:28:53;;;;;;;;;;;;;;;;;;5057329;28;20343;-43
2022/06/01 16:31:18;;;;;;;;;;;;;;;;;;5057191;28;19909;-44
2022/06/01 16:33:43;;;;;;;;;;;;;;;;;;5057117;28;19909;-44
2022/06/01 16:36:09;;;;;;;;;;;;;;;;;;5056979;28;20394;-44
2022/06/01 16:38:37;;;;;;;;;;;;;;;;;;5056947;28;19921;-43
2022/06/01 16:41:02;;;;;;;;;;;;;;;;;;5057044;28;19905;-45
2022/06/01 16:43:28;;;;;;;;;;;;;;;;;;5057218;28;19954;-43
2022/06/01 16:45:53;;;;;;;;;;;;;;;;;;5056884;28;20004;-46
2022/06/01 16:48:19;;;;;;;;;;;;;;;;;;5057013;28;20015;-44
2022/06/01 16:50:49;;;;;;;;;;;;;;;;;;5055467;28;19916;-44
2022/06/01 16:53:17;;;;;;;;;;;;;;;;;;5056982;28;19908;-43
2022/06/01 16:55:42;;;;;;;;;;;;;;;;;;5056914;28;19923;-44
2022/06/01 16:58:07;;;;;;;;;;;;;;;;;;5055705;28;20283;-44
2022/06/01 17:00:33;;;;;;;;;;;;;;;;;;5056637;28;19909;-43
2022/06/01 17:02:59;;;;;;;;;;;;;;;;;;5056790;28;19908;-44
2022/06/01 17:05:24;;;;;;;;;;;;;;;;;;5056659;28;20029;-44
2022/06/01 17:07:49;;;;;;;;;;;;;;;;;;5056557;28;19909;-43
2022/06/01 17:10:14;;;;;;;;;;;;;;;;;;5056492;28;19909;-43
2022/06/01 17:12:39;;;;;;;;;;;;;;;;;;5056510;28;19909;-43
2022/06/01 17:15:08;;;;;;;;;;;;;;;;;;5056675;28;19971;-44
2022/06/01 17:17:36;;;;;;;;;;;;;;;;;;5056582;28;19913;-43
2022/06/01 17:20:02;;;;;;;;;;;;;;;;;;5056352;28;19916;-43
2022/06/01 17:22:27;;;;;;;;;;;;;;;;;;5056427;28;19909;-43
2022/06/01 17:24:55;;;;;;;;;;;;;;;;;;5056070;28;19975;-44
2022/06/01 17:27:23;;;;;;;;;;;;;;;;;;5056163;28;20381;-44
2022/06/01 17:29:48;;;;;;;;;;;;;;;;;;5054709;28;19911;-43